Time;durP1;ratioP1;P1;durP2;ratioP2;P2;SDS_P1;SDS_P2;PMS_P1;PMS_P2;Temp;Humidity;BMP_temperature;BMP_pressure;BME280_temperature;BME280_humidity;BME280_pressure;Samples;Min_cycle;Max_cycle;Signal;HPM_P1;HPM_P2
2022/03/01 00:01:09;;;;;;;1.15;0.65;;;;;;;;;;4993689;28;20106;-75
2022/03/01 00:03:35;;;;;;;0.15;0.15;;;;;;;;;;4994864;28;20357;-77
2022/03/01 00:06:00;;;;;;;0.00;0.00;;;;;;;;;;4994866;28;20026;-77
2022/03/01 00:08:26;;;;;;;0.00;0.00;;;;;;;;;;4993983;28;20053;-76
2022/03/01 00:10:51;;;;;;;1.73;1.63;;;;;;;;;;4987677;28;20038;-83
2022/03/01 00:13:16;;;;;;;0.15;0.15;;;;;;;;;;4992945;28;20343;-81
2022/03/01 00:15:44;;;;;;;0.20;0.20;;;;;;;;;;4994469;28;20061;-77
2022/03/01 00:18:10;;;;;;;0.20;0.20;;;;;;;;;;4994987;28;20030;-82
2022/03/01 00:20:35;;;;;;;0.10;0.10;;;;;;;;;;4994649;28;20085;-83
2022/03/01 00:23:00;;;;;;;0.98;0.95;;;;;;;;;;4993903;28;20034;-82
2022/03/01 00:25:28;;;;;;;0.10;0.10;;;;;;;;;;4994490;28;20049;-82
2022/03/01 00:27:53;;;;;;;0.15;0.15;;;;;;;;;;4993542;28;20034;-83
2022/03/01 00:30:19;;;;;;;0.80;0.75;;;;;;;;;;4993854;28;20352;-82
2022/03/01 00:32:44;;;;;;;0.30;0.30;;;;;;;;;;4994276;28;20413;-83
2022/03/01 00:35:12;;;;;;;0.63;0.63;;;;;;;;;;4993499;28;20500;-82
2022/03/01 00:37:37;;;;;;;0.88;0.85;;;;;;;;;;4994394;28;20396;-82
2022/03/01 00:40:04;;;;;;;1.45;0.32;;;;;;;;;;4995041;28;20030;-82
2022/03/01 00:42:32;;;;;;;1.17;0.88;;;;;;;;;;4994093;28;20437;-83
2022/03/01 00:44:57;;;;;;;1.25;1.15;;;;;;;;;;4994804;28;20092;-83
2022/03/01 00:47:25;;;;;;;0.70;0.35;;;;;;;;;;4993837;28;20026;-78
2022/03/01 00:49:55;;;;;;;0.82;0.82;;;;;;;;;;4994933;28;20034;-80
2022/03/01 00:52:20;;;;;;;0.38;0.38;;;;;;;;;;4994578;28;20034;-82
2022/03/01 00:54:48;;;;;;;0.32;0.32;;;;;;;;;;4994681;28;20027;-83
2022/03/01 00:57:13;;;;;;;0.10;0.10;;;;;;;;;;4994356;28;20030;-83
2022/03/01 00:59:38;;;;;;;0.10;0.10;;;;;;;;;;4994396;28;20476;-80
2022/03/01 01:02:04;;;;;;;0.13;0.13;;;;;;;;;;4993968;28;20085;-83
2022/03/01 01:04:29;;;;;;;0.30;0.30;;;;;;;;;;4994349;28;20041;-82
2022/03/01 01:06:54;;;;;;;1.98;0.77;;;;;;;;;;4994086;28;20037;-82
2022/03/01 01:09:20;;;;;;;0.03;0.03;;;;;;;;;;4994650;28;20455;-81
2022/03/01 01:11:45;;;;;;;0.45;0.45;;;;;;;;;;4994318;28;20022;-82
2022/03/01 01:14:15;;;;;;;0.80;0.80;;;;;;;;;;4994138;28;20037;-83
2022/03/01 01:16:41;;;;;;;0.35;0.30;;;;;;;;;;4992992;28;20026;-84
2022/03/01 01:19:06;;;;;;;0.75;0.73;;;;;;;;;;4993387;28;20338;-84
2022/03/01 01:24:15;;;;;;;0.15;0.15;;;;;;;;;;4989669;28;20072;-82
2022/03/01 01:26:41;;;;;;;1.20;1.10;;;;;;;;;;4993812;28;20113;-80
2022/03/01 01:29:06;;;;;;;0.43;0.43;;;;;;;;;;4993904;28;20101;-82
2022/03/01 01:31:31;;;;;;;0.85;0.85;;;;;;;;;;4994108;28;20341;-81
2022/03/01 01:33:59;;;;;;;0.55;0.55;;;;;;;;;;4994175;28;20075;-82
2022/03/01 01:36:25;;;;;;;0.00;0.00;;;;;;;;;;4993071;28;20045;-81
2022/03/01 01:38:52;;;;;;;0.43;0.43;;;;;;;;;;4993356;28;20037;-81
2022/03/01 01:41:17;;;;;;;4.65;0.95;;;;;;;;;;4982466;28;20524;-84
2022/03/01 01:43:45;;;;;;;0.10;0.10;;;;;;;;;;4996600;28;20109;-82
2022/03/01 01:46:10;;;;;;;0.65;0.65;;;;;;;;;;5003401;28;20050;-82
2022/03/01 01:48:38;;;;;;;0.50;0.50;;;;;;;;;;4996568;28;20442;-82
2022/03/01 01:51:04;;;;;;;0.40;0.40;;;;;;;;;;4997600;28;20449;-82
2022/03/01 01:53:29;;;;;;;0.80;0.75;;;;;;;;;;4997605;28;20041;-83
2022/03/01 01:55:54;;;;;;;0.10;0.10;;;;;;;;;;4997480;28;20065;-83
2022/03/01 01:58:22;;;;;;;0.25;0.25;;;;;;;;;;4997411;28;20037;-82
2022/03/01 02:00:50;;;;;;;0.85;0.68;;;;;;;;;;4997153;28;20037;-80
2022/03/01 02:03:15;;;;;;;0.45;0.45;;;;;;;;;;4996095;28;20366;-83
2022/03/01 02:05:40;;;;;;;0.40;0.40;;;;;;;;;;4997455;28;20039;-83
2022/03/01 02:08:06;;;;;;;0.28;0.28;;;;;;;;;;4997415;28;20045;-83
2022/03/01 02:10:31;;;;;;;1.25;1.15;;;;;;;;;;4997271;28;20030;-83
2022/03/01 02:12:57;;;;;;;0.40;0.32;;;;;;;;;;4997092;28;20030;-81
2022/03/01 02:15:25;;;;;;;0.85;0.85;;;;;;;;;;4997312;28;20023;-83
2022/03/01 02:17:50;;;;;;;0.40;0.40;;;;;;;;;;4996948;28;20437;-82
2022/03/01 02:20:20;;;;;;;0.35;0.35;;;;;;;;;;4996964;28;20026;-79
2022/03/01 02:22:47;;;;;;;0.17;0.17;;;;;;;;;;4996828;28;20132;-82
2022/03/01 02:25:13;;;;;;;0.13;0.13;;;;;;;;;;4996049;28;20065;-83
2022/03/01 02:27:41;;;;;;;1.40;0.50;;;;;;;;;;4997129;28;20570;-82
2022/03/01 02:30:09;;;;;;;0.10;0.10;;;;;;;;;;4996629;28;20065;-83
2022/03/01 02:32:37;;;;;;;0.10;0.10;;;;;;;;;;4996929;28;20035;-83
2022/03/01 02:35:04;;;;;;;1.98;1.25;;;;;;;;;;4996757;28;20181;-82
2022/03/01 02:37:29;;;;;;;0.35;0.32;;;;;;;;;;4996936;28;20446;-84
2022/03/01 02:39:55;;;;;;;0.47;0.47;;;;;;;;;;4996522;28;20084;-84
2022/03/01 02:42:21;;;;;;;0.20;0.20;;;;;;;;;;4996690;28;20457;-84
2022/03/01 02:44:48;;;;;;;5.70;0.90;;;;;;;;;;4996038;28;20026;-83
2022/03/01 02:47:14;;;;;;;0.15;0.15;;;;;;;;;;5003561;28;20026;-83
2022/03/01 02:49:40;;;;;;;0.85;0.52;;;;;;;;;;4999002;28;20025;-84
2022/03/01 02:52:08;;;;;;;0.63;0.63;;;;;;;;;;4996802;28;20022;-84
2022/03/01 02:54:36;;;;;;;0.50;0.50;;;;;;;;;;4996361;28;20473;-80
2022/03/01 02:57:02;;;;;;;0.40;0.40;;;;;;;;;;4996551;28;20432;-84
2022/03/01 02:59:28;;;;;;;1.27;0.35;;;;;;;;;;4997513;28;20037;-82
2022/03/01 03:01:54;;;;;;;1.02;0.80;;;;;;;;;;4992041;28;20019;-84
2022/03/01 03:04:21;;;;;;;0.03;0.03;;;;;;;;;;4995002;28;20022;-83
2022/03/01 03:06:49;;;;;;;0.45;0.45;;;;;;;;;;4995625;28;20041;-82
2022/03/01 03:09:17;;;;;;;0.65;0.52;;;;;;;;;;4995330;28;20022;-82
2022/03/01 03:11:45;;;;;;;0.32;0.32;;;;;;;;;;4996011;28;20028;-82
2022/03/01 03:14:10;;;;;;;0.52;0.52;;;;;;;;;;4994736;28;20032;-82
2022/03/01 03:16:38;;;;;;;0.90;0.65;;;;;;;;;;4995780;28;20030;-83
2022/03/01 03:19:04;;;;;;;0.20;0.17;;;;;;;;;;4996146;28;20412;-83
2022/03/01 03:21:29;;;;;;;0.70;0.70;;;;;;;;;;4995868;28;20026;-83
2022/03/01 03:23:54;;;;;;;1.98;1.85;;;;;;;;;;4996034;28;20369;-84
2022/03/01 03:26:20;;;;;;;0.52;0.52;;;;;;;;;;4996142;28;20037;-81
2022/03/01 03:28:45;;;;;;;0.85;0.40;;;;;;;;;;5000575;28;20029;-82
2022/03/01 03:31:13;;;;;;;0.45;0.45;;;;;;;;;;5000402;28;20109;-82
2022/03/01 03:33:40;;;;;;;0.95;0.88;;;;;;;;;;5003753;28;20022;-81
2022/03/01 03:36:08;;;;;;;1.58;1.48;;;;;;;;;;5000566;28;20022;-79
2022/03/01 03:38:35;;;;;;;0.00;0.00;;;;;;;;;;4995439;28;20549;-80
2022/03/01 03:41:01;;;;;;;0.35;0.35;;;;;;;;;;4995426;28;20044;-83
2022/03/01 03:43:28;;;;;;;0.30;0.30;;;;;;;;;;4995277;28;20421;-83
2022/03/01 03:45:54;;;;;;;0.75;0.70;;;;;;;;;;4995195;28;20038;-84
2022/03/01 03:48:21;;;;;;;0.17;0.17;;;;;;;;;;4994310;28;20331;-83
2022/03/01 03:50:47;;;;;;;0.47;0.47;;;;;;;;;;4995340;28;20021;-83
2022/03/01 03:53:12;;;;;;;0.93;0.75;;;;;;;;;;4994910;28;20034;-83
2022/03/01 03:55:42;;;;;;;2.08;0.35;;;;;;;;;;4994369;28;20033;-80
2022/03/01 03:58:08;;;;;;;0.20;0.13;;;;;;;;;;4995548;28;20390;-83
2022/03/01 04:00:33;;;;;;;0.00;0.00;;;;;;;;;;4994732;28;20040;-82
2022/03/01 04:03:01;;;;;;;0.47;0.47;;;;;;;;;;4995122;28;20027;-82
2022/03/01 04:05:27;;;;;;;0.38;0.38;;;;;;;;;;4993388;28;20424;-82
2022/03/01 04:07:53;;;;;;;0.57;0.50;;;;;;;;;;4996769;28;20121;-81
2022/03/01 04:10:18;;;;;;;0.70;0.35;;;;;;;;;;4993740;28;20109;-83
2022/03/01 04:12:44;;;;;;;0.32;0.32;;;;;;;;;;4995234;28;20361;-81
2022/03/01 04:15:12;;;;;;;1.38;1.27;;;;;;;;;;4994546;28;20095;-82
2022/03/01 04:17:39;;;;;;;0.10;0.10;;;;;;;;;;4990596;28;20080;-83
2022/03/01 04:20:07;;;;;;;0.40;0.40;;;;;;;;;;4992522;28;20026;-83
2022/03/01 04:22:33;;;;;;;0.82;0.82;;;;;;;;;;4993472;28;20037;-81
2022/03/01 04:24:58;;;;;;;0.20;0.20;;;;;;;;;;4992413;28;20030;-83
2022/03/01 04:27:23;;;;;;;1.88;1.23;;;;;;;;;;4994512;28;20406;-83
2022/03/01 04:29:51;;;;;;;0.65;0.65;;;;;;;;;;4994241;28;20442;-83
2022/03/01 04:32:16;;;;;;;0.00;0.00;;;;;;;;;;4997406;28;20112;-83
2022/03/01 04:34:44;;;;;;;1.17;1.08;;;;;;;;;;4994471;28;20103;-81
2022/03/01 04:37:10;;;;;;;0.10;0.10;;;;;;;;;;4994506;28;20033;-84
2022/03/01 04:39:35;;;;;;;0.35;0.35;;;;;;;;;;4993799;28;20029;-85
2022/03/01 04:42:01;;;;;;;0.32;0.32;;;;;;;;;;4993963;28;20205;-85
2022/03/01 04:44:26;;;;;;;0.22;0.22;;;;;;;;;;4993622;28;20034;-85
2022/03/01 04:46:53;;;;;;;1.08;1.08;;;;;;;;;;4993958;28;20070;-84
2022/03/01 04:49:18;;;;;;;0.30;0.30;;;;;;;;;;4994126;28;20054;-85
2022/03/01 04:51:43;;;;;;;0.85;0.85;;;;;;;;;;4994498;28;20030;-82
2022/03/01 04:54:11;;;;;;;0.68;0.68;;;;;;;;;;4994391;28;20034;-82
2022/03/01 04:56:36;;;;;;;1.00;0.95;;;;;;;;;;4994334;28;20175;-83
2022/03/01 04:59:02;;;;;;;1.95;1.02;;;;;;;;;;4976351;28;20022;-84
2022/03/01 05:01:28;;;;;;;0.45;0.45;;;;;;;;;;4990012;28;20066;-85
2022/03/01 05:03:53;;;;;;;0.50;0.50;;;;;;;;;;4989237;28;20045;-82
2022/03/01 05:06:20;;;;;;;0.73;0.50;;;;;;;;;;4992731;28;20065;-85
2022/03/01 05:08:46;;;;;;;0.88;0.52;;;;;;;;;;4993267;28;20112;-85
2022/03/01 05:11:11;;;;;;;0.40;0.40;;;;;;;;;;4994369;28;20109;-85
2022/03/01 05:13:36;;;;;;;0.22;0.22;;;;;;;;;;4994339;28;20105;-84
2022/03/01 05:16:02;;;;;;;0.30;0.30;;;;;;;;;;4995945;28;20365;-83
2022/03/01 05:18:27;;;;;;;0.20;0.20;;;;;;;;;;4997945;28;20057;-83
2022/03/01 05:20:54;;;;;;;2.03;1.73;;;;;;;;;;4998141;28;20105;-84
2022/03/01 05:23:19;;;;;;;0.70;0.43;;;;;;;;;;4997692;28;20041;-84
2022/03/01 05:25:44;;;;;;;0.88;0.85;;;;;;;;;;4998136;28;20026;-81
2022/03/01 05:28:12;;;;;;;0.10;0.10;;;;;;;;;;4997986;28;20041;-84
2022/03/01 05:30:37;;;;;;;1.30;1.13;;;;;;;;;;4997607;28;20080;-83
2022/03/01 05:33:03;;;;;;;0.95;0.63;;;;;;;;;;4997529;28;20042;-84
2022/03/01 05:35:30;;;;;;;1.60;1.50;;;;;;;;;;4997814;28;20168;-83
2022/03/01 05:37:57;;;;;;;0.88;0.88;;;;;;;;;;4997567;28;20026;-84
2022/03/01 05:40:25;;;;;;;0.90;0.75;;;;;;;;;;4997601;28;20338;-84
2022/03/01 05:42:53;;;;;;;0.57;0.57;;;;;;;;;;4997462;28;20034;-84
2022/03/01 05:45:18;;;;;;;0.32;0.30;;;;;;;;;;4997570;28;20099;-85
2022/03/01 05:47:44;;;;;;;1.23;1.05;;;;;;;;;;4997714;28;20057;-81
2022/03/01 05:50:14;;;;;;;0.93;0.93;;;;;;;;;;4996927;28;20022;-84
2022/03/01 05:52:40;;;;;;;0.25;0.25;;;;;;;;;;4996474;28;20469;-84
2022/03/01 05:55:07;;;;;;;1.23;1.13;;;;;;;;;;4997324;28;20065;-83
2022/03/01 05:57:37;;;;;;;0.73;0.73;;;;;;;;;;4996598;28;20049;-82
2022/03/01 06:00:09;;;;;;;0.93;0.93;;;;;;;;;;4995876;28;20025;-83
2022/03/01 06:02:37;;;;;;;1.77;0.68;;;;;;;;;;4995429;28;20109;-85
2022/03/01 06:05:05;;;;;;;0.45;0.40;;;;;;;;;;4997304;28;20041;-83
2022/03/01 06:07:30;;;;;;;1.08;0.98;;;;;;;;;;4996081;28;20030;-84
2022/03/01 06:09:58;;;;;;;0.43;0.43;;;;;;;;;;4996592;28;20022;-85
2022/03/01 06:12:25;;;;;;;1.25;1.15;;;;;;;;;;4997272;28;20096;-84
2022/03/01 06:14:51;;;;;;;1.15;0.93;;;;;;;;;;4996615;28;20030;-83
2022/03/01 06:17:16;;;;;;;2.88;1.27;;;;;;;;;;4996962;28;20030;-82
2022/03/01 06:19:41;;;;;;;0.47;0.47;;;;;;;;;;4996937;28;20030;-82
2022/03/01 06:22:07;;;;;;;1.48;1.38;;;;;;;;;;4997011;28;20077;-82
2022/03/01 06:24:38;;;;;;;1.10;1.02;;;;;;;;;;4972964;28;20031;-86
2022/03/01 06:27:05;;;;;;;0.45;0.45;;;;;;;;;;4996166;28;20036;-85
2022/03/01 06:29:30;;;;;;;0.20;0.20;;;;;;;;;;4996674;28;20041;-85
2022/03/01 06:31:58;;;;;;;0.80;0.73;;;;;;;;;;4997540;28;20022;-79
2022/03/01 06:34:23;;;;;;;0.63;0.63;;;;;;;;;;4996186;28;20037;-80
2022/03/01 06:36:51;;;;;;;1.27;1.05;;;;;;;;;;4997195;28;20030;-83
2022/03/01 06:39:17;;;;;;;0.77;0.77;;;;;;;;;;5000980;28;20461;-83
2022/03/01 06:41:42;;;;;;;1.30;0.60;;;;;;;;;;5000728;28;20030;-84
2022/03/01 06:44:07;;;;;;;1.25;1.15;;;;;;;;;;5007027;28;20060;-83
2022/03/01 06:46:33;;;;;;;2.50;1.58;;;;;;;;;;5003609;28;20026;-84
2022/03/01 06:48:58;;;;;;;0.93;0.90;;;;;;;;;;5002074;28;20026;-84
2022/03/01 06:51:24;;;;;;;1.23;1.20;;;;;;;;;;4996090;28;20018;-81
2022/03/01 06:53:49;;;;;;;0.88;0.88;;;;;;;;;;4998730;28;20042;-82
2022/03/01 06:56:17;;;;;;;0.25;0.25;;;;;;;;;;4994851;28;20112;-85
2022/03/01 06:58:47;;;;;;;0.10;0.10;;;;;;;;;;4996348;28;20022;-85
2022/03/01 07:01:15;;;;;;;3.20;2.13;;;;;;;;;;4996102;28;20369;-85
2022/03/01 07:03:42;;;;;;;0.95;0.88;;;;;;;;;;4995180;28;20504;-85
2022/03/01 07:06:08;;;;;;;0.30;0.13;;;;;;;;;;4995107;28;20037;-84
2022/03/01 07:08:35;;;;;;;1.08;0.68;;;;;;;;;;4995823;28;20471;-83
2022/03/01 07:11:01;;;;;;;1.55;0.88;;;;;;;;;;4995964;28;20022;-85
2022/03/01 07:13:26;;;;;;;2.05;1.40;;;;;;;;;;4995954;28;20401;-86
2022/03/01 07:15:51;;;;;;;0.52;0.52;;;;;;;;;;4995485;28;20026;-84
2022/03/01 07:18:17;;;;;;;1.65;1.55;;;;;;;;;;4995404;28;20458;-84
2022/03/01 07:20:44;;;;;;;1.10;1.00;;;;;;;;;;4995377;28;20334;-86
2022/03/01 07:23:10;;;;;;;1.05;0.93;;;;;;;;;;5000916;28;20061;-82
2022/03/01 07:25:36;;;;;;;2.53;0.77;;;;;;;;;;4977963;28;20050;-84
2022/03/01 07:28:02;;;;;;;0.30;0.30;;;;;;;;;;4994648;28;20461;-84
2022/03/01 07:30:28;;;;;;;2.25;1.92;;;;;;;;;;4995256;28;20068;-84
2022/03/01 07:32:55;;;;;;;1.25;1.23;;;;;;;;;;4994548;28;20026;-84
2022/03/01 07:35:21;;;;;;;0.70;0.70;;;;;;;;;;4995523;28;20033;-84
2022/03/01 07:37:49;;;;;;;0.52;0.52;;;;;;;;;;4995527;28;20041;-84
2022/03/01 07:40:15;;;;;;;0.35;0.35;;;;;;;;;;4994705;28;20037;-84
2022/03/01 07:42:41;;;;;;;0.25;0.25;;;;;;;;;;4977778;28;20045;-85
2022/03/01 07:45:07;;;;;;;1.33;1.10;;;;;;;;;;4978131;28;20045;-84
2022/03/01 07:47:32;;;;;;;1.08;1.02;;;;;;;;;;4995546;28;20500;-82
2022/03/01 07:49:57;;;;;;;0.45;0.45;;;;;;;;;;4995028;28;20073;-84
2022/03/01 07:52:23;;;;;;;0.38;0.38;;;;;;;;;;4995138;28;20060;-86
2022/03/01 07:54:48;;;;;;;1.65;0.90;;;;;;;;;;4995178;28;20042;-85
2022/03/01 07:57:17;;;;;;;2.08;0.85;;;;;;;;;;4995477;28;20349;-83
2022/03/01 07:59:45;;;;;;;0.77;0.77;;;;;;;;;;4994449;28;20038;-82
2022/03/01 08:02:10;;;;;;;0.60;0.60;;;;;;;;;;4999175;28;20026;-84
2022/03/01 08:04:41;;;;;;;3.28;1.73;;;;;;;;;;4994762;28;20088;-85
2022/03/01 08:07:11;;;;;;;3.70;0.82;;;;;;;;;;4994931;28;20038;-84
2022/03/01 08:09:38;;;;;;;0.95;0.90;;;;;;;;;;4994404;28;20127;-83
2022/03/01 08:12:05;;;;;;;1.25;0.93;;;;;;;;;;4993995;28;20026;-84
2022/03/01 08:14:31;;;;;;;1.75;1.65;;;;;;;;;;4988002;28;20045;-74
2022/03/01 08:16:59;;;;;;;1.95;1.70;;;;;;;;;;4993146;28;20038;-76
2022/03/01 08:19:27;;;;;;;1.40;1.17;;;;;;;;;;4994486;28;20034;-76
2022/03/01 08:21:57;;;;;;;1.38;1.27;;;;;;;;;;4995356;28;20069;-76
2022/03/01 08:24:27;;;;;;;1.90;1.75;;;;;;;;;;4996907;28;20026;-77
2022/03/01 08:26:53;;;;;;;0.82;0.82;;;;;;;;;;4993832;28;20069;-76
2022/03/01 08:29:18;;;;;;;0.80;0.63;;;;;;;;;;4994347;28;20034;-76
2022/03/01 08:31:44;;;;;;;1.38;1.27;;;;;;;;;;4993246;28;20018;-77
2022/03/01 08:34:09;;;;;;;1.13;0.98;;;;;;;;;;4994928;28;20030;-77
2022/03/01 08:36:35;;;;;;;0.57;0.43;;;;;;;;;;4993235;28;20030;-77
2022/03/01 08:39:03;;;;;;;3.20;1.52;;;;;;;;;;4992952;28;20034;-77
2022/03/01 08:41:28;;;;;;;1.35;0.95;;;;;;;;;;4993637;28;20037;-77
2022/03/01 08:43:53;;;;;;;0.95;0.70;;;;;;;;;;4993985;28;20022;-77
2022/03/01 08:46:19;;;;;;;1.60;1.50;;;;;;;;;;4993751;28;20088;-75
2022/03/01 08:48:52;;;;;;;1.25;1.20;;;;;;;;;;4990290;28;20037;-76
2022/03/01 08:51:18;;;;;;;1.55;1.25;;;;;;;;;;4992818;28;20127;-78
2022/03/01 08:53:43;;;;;;;6.63;1.50;;;;;;;;;;4993281;28;20081;-77
2022/03/01 08:56:10;;;;;;;1.17;1.10;;;;;;;;;;4994160;28;20432;-76
2022/03/01 08:58:35;;;;;;;0.98;0.73;;;;;;;;;;4993921;28;20022;-76
2022/03/01 09:01:00;;;;;;;0.65;0.52;;;;;;;;;;4993847;28;20110;-77
2022/03/01 09:03:28;;;;;;;1.58;1.23;;;;;;;;;;4993723;28;20038;-76
2022/03/01 09:05:53;;;;;;;1.85;1.10;;;;;;;;;;4993654;28;20026;-78
2022/03/01 09:08:19;;;;;;;1.60;0.90;;;;;;;;;;4992786;28;20124;-76
2022/03/01 09:10:50;;;;;;;0.73;0.65;;;;;;;;;;4993857;28;20022;-80
2022/03/01 09:13:15;;;;;;;0.70;0.70;;;;;;;;;;4994243;28;20031;-77
2022/03/01 09:15:40;;;;;;;0.77;0.68;;;;;;;;;;4993757;28;20104;-77
2022/03/01 09:18:09;;;;;;;1.15;1.13;;;;;;;;;;4996866;28;20030;-78
2022/03/01 09:20:37;;;;;;;1.48;1.20;;;;;;;;;;4994557;28;20033;-78
2022/03/01 09:23:02;;;;;;;1.02;0.80;;;;;;;;;;4993547;28;20054;-77
2022/03/01 09:25:28;;;;;;;1.40;1.30;;;;;;;;;;4992896;28;20030;-77
2022/03/01 09:27:56;;;;;;;3.58;2.00;;;;;;;;;;4993405;28;20061;-78
2022/03/01 09:30:21;;;;;;;0.28;0.28;;;;;;;;;;4993751;28;20030;-76
2022/03/01 09:32:47;;;;;;;2.03;1.25;;;;;;;;;;4993664;28;20105;-76
2022/03/01 09:35:15;;;;;;;0.90;0.88;;;;;;;;;;4993010;28;20034;-76
2022/03/01 09:37:41;;;;;;;0.65;0.65;;;;;;;;;;4988169;28;20362;-76
2022/03/01 09:40:11;;;;;;;1.90;1.60;;;;;;;;;;4994230;28;20022;-75
2022/03/01 09:42:39;;;;;;;0.60;0.60;;;;;;;;;;4987873;28;20027;-75
2022/03/01 09:45:08;;;;;;;0.60;0.60;;;;;;;;;;4987622;28;20092;-79
2022/03/01 09:47:34;;;;;;;1.92;1.10;;;;;;;;;;4991972;28;20056;-75
2022/03/01 09:49:59;;;;;;;2.08;0.57;;;;;;;;;;4992363;28;20449;-76
2022/03/01 09:52:27;;;;;;;0.73;0.73;;;;;;;;;;4993426;28;20096;-76
2022/03/01 09:54:54;;;;;;;3.85;1.13;;;;;;;;;;4993155;28;21421;-76
2022/03/01 09:57:20;;;;;;;4.93;1.25;;;;;;;;;;4994518;28;20026;-76
2022/03/01 09:59:47;;;;;;;1.65;1.35;;;;;;;;;;4996808;28;20026;-75
2022/03/01 10:02:15;;;;;;;1.50;1.10;;;;;;;;;;4992337;28;20030;-75
2022/03/01 10:04:54;;;;;;;0.75;0.75;;;;;;;;;;4994760;28;20480;-76
2022/03/01 10:07:23;;;;;;;1.40;0.60;;;;;;;;;;4995422;28;20022;-76
2022/03/01 10:09:49;;;;;;;1.55;1.42;;;;;;;;;;4996734;28;20088;-76
2022/03/01 10:12:24;;;;;;;1.60;0.82;;;;;;;;;;4997058;28;20022;-76
2022/03/01 10:14:59;;;;;;;1.13;0.90;;;;;;;;;;4997052;28;20033;-76
2022/03/01 10:17:42;;;;;;;1.27;1.17;;;;;;;;;;4996673;28;20137;-78
2022/03/01 10:20:21;;;;;;;0.75;0.75;;;;;;;;;;4997167;28;20034;-76
2022/03/01 10:22:51;;;;;;;1.67;1.05;;;;;;;;;;4994748;28;20030;-76
2022/03/01 10:25:19;;;;;;;1.80;0.88;;;;;;;;;;4995213;28;20026;-77
2022/03/01 10:27:49;;;;;;;0.93;0.65;;;;;;;;;;4979729;28;20027;-75
2022/03/01 10:30:28;;;;;;;4.50;2.00;;;;;;;;;;5001342;28;20029;-76
2022/03/01 10:33:15;;;;;;;3.13;0.98;;;;;;;;;;4996569;28;20026;-76
2022/03/01 10:35:42;;;;;;;2.78;1.33;;;;;;;;;;4979781;28;20110;-76
2022/03/01 10:38:10;;;;;;;0.50;0.50;;;;;;;;;;4995904;28;20109;-74
2022/03/01 10:40:39;;;;;;;1.13;1.08;;;;;;;;;;4976891;28;20338;-78
2022/03/01 10:43:11;;;;;;;0.70;0.65;;;;;;;;;;4992791;28;20480;-78
2022/03/01 10:45:47;;;;;;;1.15;1.15;;;;;;;;;;4992178;28;20060;-76
2022/03/01 10:48:23;;;;;;;0.73;0.73;;;;;;;;;;4992972;28;20062;-77
2022/03/01 10:51:19;;;;;;;2.13;1.92;;;;;;;;;;4995078;28;20022;-77
2022/03/01 10:53:47;;;;;;;0.47;0.47;;;;;;;;;;4995811;28;20029;-80
2022/03/01 10:56:13;;;;;;;2.65;2.15;;;;;;;;;;4994455;28;20373;-78
2022/03/01 10:58:43;;;;;;;1.30;1.20;;;;;;;;;;5000240;28;20035;-77
2022/03/01 11:01:10;;;;;;;2.22;2.03;;;;;;;;;;4991692;28;20112;-78
2022/03/01 11:03:36;;;;;;;1.33;1.10;;;;;;;;;;4993456;28;20026;-78
2022/03/01 11:06:02;;;;;;;2.22;0.77;;;;;;;;;;4995187;28;20071;-80
2022/03/01 11:08:33;;;;;;;1.35;0.73;;;;;;;;;;4996049;28;20030;-79
2022/03/01 11:11:01;;;;;;;3.63;1.17;;;;;;;;;;4992824;28;20083;-77
2022/03/01 11:13:27;;;;;;;0.93;0.93;;;;;;;;;;4995143;28;20105;-79
2022/03/01 11:15:57;;;;;;;1.25;1.20;;;;;;;;;;4994639;28;20121;-79
2022/03/01 11:18:47;;;;;;;3.75;2.08;;;;;;;;;;4995609;28;20480;-78
2022/03/01 11:21:14;;;;;;;2.25;0.73;;;;;;;;;;4995040;28;20042;-80
2022/03/01 11:23:43;;;;;;;1.85;0.40;;;;;;;;;;4993515;28;20030;-78
2022/03/01 11:26:14;;;;;;;1.50;0.90;;;;;;;;;;4993653;28;20038;-78
2022/03/01 11:28:46;;;;;;;2.25;1.98;;;;;;;;;;4992256;28;20026;-76
2022/03/01 11:31:29;;;;;;;1.23;0.98;;;;;;;;;;4992658;28;20037;-76
2022/03/01 11:33:58;;;;;;;1.33;0.90;;;;;;;;;;4991585;28;20022;-76
2022/03/01 11:36:26;;;;;;;0.60;0.60;;;;;;;;;;4990730;28;20037;-77
2022/03/01 11:38:52;;;;;;;1.30;1.17;;;;;;;;;;4992752;28;20415;-76
2022/03/01 11:41:22;;;;;;;1.38;0.85;;;;;;;;;;4994016;28;20034;-78
2022/03/01 11:43:56;;;;;;;0.57;0.55;;;;;;;;;;4990424;28;20040;-78
2022/03/01 11:46:24;;;;;;;3.42;1.98;;;;;;;;;;4992663;28;20369;-78
2022/03/01 11:48:55;;;;;;;0.70;0.60;;;;;;;;;;4994748;28;20105;-78
2022/03/01 11:51:35;;;;;;;1.33;1.10;;;;;;;;;;4991413;28;20101;-78
2022/03/01 11:54:06;;;;;;;1.13;0.70;;;;;;;;;;4988861;28;20036;-76
2022/03/01 11:56:33;;;;;;;3.05;1.27;;;;;;;;;;4991975;28;20485;-78
2022/03/01 11:59:06;;;;;;;1.40;1.00;;;;;;;;;;4992767;28;20034;-77
2022/03/01 12:01:35;;;;;;;0.50;0.50;;;;;;;;;;4994504;28;20481;-77
2022/03/01 12:04:05;;;;;;;1.30;0.85;;;;;;;;;;4992709;28;20081;-77
2022/03/01 12:06:35;;;;;;;2.08;1.80;;;;;;;;;;4995424;28;20033;-77
2022/03/01 12:09:07;;;;;;;1.35;1.00;;;;;;;;;;4997762;28;20025;-76
2022/03/01 12:11:35;;;;;;;1.52;1.10;;;;;;;;;;4992705;28;20076;-77
2022/03/01 12:14:04;;;;;;;1.90;0.82;;;;;;;;;;4993324;28;20070;-77
2022/03/01 12:16:29;;;;;;;5.03;3.00;;;;;;;;;;4990659;28;20371;-75
2022/03/01 12:19:11;;;;;;;5.60;1.88;;;;;;;;;;4993091;28;20041;-79
2022/03/01 12:21:47;;;;;;;1.50;1.20;;;;;;;;;;4994190;28;20148;-78
2022/03/01 12:24:15;;;;;;;1.48;1.38;;;;;;;;;;4989066;28;20049;-78
2022/03/01 12:26:46;;;;;;;2.22;1.02;;;;;;;;;;4994160;28;20041;-77
2022/03/01 12:29:12;;;;;;;3.88;1.20;;;;;;;;;;4994867;28;20022;-76
2022/03/01 12:31:37;;;;;;;4.38;1.67;;;;;;;;;;4994611;28;20030;-77
2022/03/01 12:34:05;;;;;;;0.77;0.77;;;;;;;;;;4993435;28;20037;-76
2022/03/01 12:36:41;;;;;;;2.05;1.23;;;;;;;;;;4992105;28;20533;-77
2022/03/01 12:39:12;;;;;;;0.73;0.70;;;;;;;;;;4987529;28;20026;-76
2022/03/01 12:41:38;;;;;;;3.58;1.70;;;;;;;;;;4988733;28;20022;-77
2022/03/01 12:44:06;;;;;;;1.65;1.55;;;;;;;;;;4993602;28;20033;-76
2022/03/01 12:46:32;;;;;;;1.17;1.13;;;;;;;;;;4994033;28;20026;-77
2022/03/01 12:48:59;;;;;;;2.50;1.77;;;;;;;;;;4993118;28;20038;-82
2022/03/01 12:51:25;;;;;;;7.63;3.80;;;;;;;;;;4996768;28;20381;-77
2022/03/01 12:53:55;;;;;;;1.52;1.23;;;;;;;;;;4992293;28;20034;-75
2022/03/01 12:56:23;;;;;;;3.75;1.05;;;;;;;;;;4995242;28;20041;-76
2022/03/01 12:58:52;;;;;;;1.08;1.02;;;;;;;;;;4992844;28;20054;-75
2022/03/01 13:01:22;;;;;;;1.30;1.10;;;;;;;;;;4997541;28;20358;-75
2022/03/01 13:03:52;;;;;;;0.65;0.65;;;;;;;;;;4993576;28;20042;-75
2022/03/01 13:06:21;;;;;;;2.05;1.55;;;;;;;;;;4994606;28;20034;-75
2022/03/01 13:08:51;;;;;;;1.02;0.88;;;;;;;;;;4992119;28;20026;-74
2022/03/01 13:11:32;;;;;;;1.42;1.33;;;;;;;;;;4993544;28;20526;-75
2022/03/01 13:14:09;;;;;;;1.00;0.95;;;;;;;;;;4993027;28;20119;-75
2022/03/01 13:16:45;;;;;;;3.80;1.70;;;;;;;;;;4993011;28;20032;-75
2022/03/01 13:19:15;;;;;;;1.95;1.63;;;;;;;;;;4995726;28;20041;-75
2022/03/01 13:21:46;;;;;;;2.65;1.35;;;;;;;;;;4995608;28;20041;-75
2022/03/01 13:24:15;;;;;;;1.08;1.00;;;;;;;;;;4991558;28;20349;-76
2022/03/01 13:26:40;;;;;;;3.15;1.73;;;;;;;;;;4996483;28;20450;-75
2022/03/01 13:29:18;;;;;;;3.70;1.58;;;;;;;;;;4999939;28;20037;-75
2022/03/01 13:31:54;;;;;;;1.75;1.38;;;;;;;;;;4995726;28;20141;-75
2022/03/01 13:34:25;;;;;;;1.13;0.88;;;;;;;;;;4990622;28;20030;-75
2022/03/01 13:36:54;;;;;;;1.75;1.58;;;;;;;;;;4997656;28;20050;-74
2022/03/01 13:39:21;;;;;;;7.80;1.80;;;;;;;;;;4996578;28;20030;-75
2022/03/01 13:41:52;;;;;;;1.13;1.02;;;;;;;;;;4995513;28;20030;-75
2022/03/01 13:44:22;;;;;;;1.15;0.73;;;;;;;;;;4995563;28;20390;-75
2022/03/01 13:47:02;;;;;;;3.45;2.38;;;;;;;;;;4996657;28;20060;-75
2022/03/01 13:49:36;;;;;;;3.92;2.13;;;;;;;;;;4991222;28;20037;-76
2022/03/01 13:52:06;;;;;;;0.08;0.08;;;;;;;;;;4998950;28;20034;-75
2022/03/01 13:54:34;;;;;;;0.73;0.73;;;;;;;;;;4998364;28;20460;-74
2022/03/01 13:57:01;;;;;;;1.77;1.42;;;;;;;;;;4980091;28;20041;-75
2022/03/01 13:59:26;;;;;;;0.52;0.40;;;;;;;;;;4993377;28;20143;-76
2022/03/01 14:01:51;;;;;;;2.88;0.88;;;;;;;;;;5000336;28;20127;-76
2022/03/01 14:04:24;;;;;;;1.92;1.27;;;;;;;;;;4997198;28;20037;-75
2022/03/01 14:06:56;;;;;;;1.85;1.27;;;;;;;;;;4995980;28;20026;-75
2022/03/01 14:09:23;;;;;;;1.35;1.15;;;;;;;;;;4997602;28;20042;-75
2022/03/01 14:12:00;;;;;;;1.33;0.45;;;;;;;;;;4997879;28;20041;-74
2022/03/01 14:14:26;;;;;;;0.75;0.60;;;;;;;;;;4977987;28;20022;-75
2022/03/01 14:16:54;;;;;;;3.33;1.98;;;;;;;;;;4996044;28;20034;-75
2022/03/01 14:19:24;;;;;;;3.47;0.88;;;;;;;;;;4996598;28;20030;-75
2022/03/01 14:21:49;;;;;;;1.80;1.38;;;;;;;;;;4996518;28;20437;-75
2022/03/01 14:24:17;;;;;;;0.88;0.85;;;;;;;;;;4996155;28;20073;-75
2022/03/01 14:26:42;;;;;;;1.67;1.40;;;;;;;;;;4995914;28;20040;-75
2022/03/01 14:29:11;;;;;;;1.23;1.13;;;;;;;;;;4998641;28;20026;-75
2022/03/01 14:31:39;;;;;;;1.48;1.38;;;;;;;;;;5002160;28;20393;-75
2022/03/01 14:34:07;;;;;;;1.15;1.05;;;;;;;;;;4995546;28;20022;-76
2022/03/01 14:36:32;;;;;;;3.30;1.70;;;;;;;;;;4998999;28;20037;-75
2022/03/01 14:38:58;;;;;;;0.65;0.65;;;;;;;;;;4979919;28;20034;-76
2022/03/01 14:41:24;;;;;;;0.52;0.52;;;;;;;;;;4999337;28;20038;-76
2022/03/01 14:43:51;;;;;;;0.90;0.77;;;;;;;;;;4993190;28;20086;-76
2022/03/01 14:46:18;;;;;;;3.05;1.60;;;;;;;;;;5003018;28;20031;-76
2022/03/01 14:48:46;;;;;;;1.02;0.80;;;;;;;;;;4995668;28;20177;-75